Time;durP1;ratioP1;P1;durP2;ratioP2;P2;SDS_P1;SDS_P2;PMS_P1;PMS_P2;Temp;Humidity;BMP_temperature;BMP_pressure;BME280_temperature;BME280_humidity;BME280_pressure;Samples;Min_cycle;Max_cycle;Signal;HPM_P1;HPM_P2
2021/07/24 00:01:59;;;;;;;4.95;3.40;;;;;;;28.31;35.60;101058.44;144992;585;6002;-88
2021/07/24 00:04:26;;;;;;;3.62;3.17;;;;;;;28.29;35.55;101064.78;144992;576;6002;-86
2021/07/24 00:06:52;;;;;;;6.00;3.45;;;;;;;28.27;35.63;101062.16;144992;577;6002;-86
2021/07/24 00:09:19;;;;;;;4.78;3.30;;;;;;;28.27;35.25;101056.84;144992;744;6002;-87
2021/07/24 00:11:45;;;;;;;3.35;3.00;;;;;;;28.25;35.56;101057.81;144992;569;6002;-86
2021/07/24 00:14:12;;;;;;;4.57;3.53;;;;;;;28.25;35.46;101052.47;144992;571;6002;-88
2021/07/24 00:16:41;;;;;;;4.72;3.25;;;;;;;28.18;36.00;101059.84;144992;595;6002;-88
2021/07/24 00:19:08;;;;;;;5.22;3.45;;;;;;;28.17;35.31;101052.75;144992;593;6002;-85
2021/07/24 00:21:34;;;;;;;3.78;3.28;;;;;;;28.17;35.41;101048.31;144991;582;6002;-88
2021/07/24 00:24:01;;;;;;;3.75;3.40;;;;;;;28.16;35.56;101035.88;144992;570;6003;-87
2021/07/24 00:26:28;;;;;;;7.72;3.15;;;;;;;28.13;35.81;101038.69;144992;586;6002;-87
2021/07/24 00:28:54;;;;;;;5.03;3.17;;;;;;;28.08;35.81;101047.78;144992;565;6002;-85
2021/07/24 00:31:21;;;;;;;5.03;3.92;;;;;;;28.09;36.06;101047.72;144992;637;6002;-85
2021/07/24 00:33:47;;;;;;;6.28;3.28;;;;;;;28.12;35.56;101055.59;144992;635;6002;-86
2021/07/24 00:36:17;;;;;;;4.72;3.40;;;;;;;28.09;34.84;101054.88;144992;580;6002;-88
2021/07/24 00:38:43;;;;;;;7.32;4.40;;;;;;;28.10;35.84;101057.47;144992;593;6002;-88
2021/07/24 00:41:24;;;;;;;7.95;6.22;;;;;;;28.09;36.16;101054.88;144992;590;6002;-86
2021/07/24 00:43:52;;;;;;;9.90;7.18;;;;;;;28.08;36.18;101059.34;144992;707;6002;-88
2021/07/24 00:46:21;;;;;;;10.13;7.75;;;;;;;28.10;35.73;101057.47;144992;623;6002;-88
2021/07/24 00:48:48;;;;;;;13.98;8.50;;;;;;;28.09;35.81;101050.37;144992;609;6002;-86
2021/07/24 00:51:27;;;;;;;15.57;9.38;;;;;;;28.12;35.91;101057.41;144992;569;6002;-86
2021/07/24 00:53:54;;;;;;;14.38;12.70;;;;;;;28.04;36.26;101052.38;144992;577;6002;-86
2021/07/24 00:56:24;;;;;;;13.60;11.23;;;;;;;27.97;36.39;101050.87;144992;583;6002;-87
2021/07/24 00:58:55;;;;;;;17.52;12.73;;;;;;;27.98;36.29;101048.16;144992;687;6002;-87
2021/07/24 01:01:21;;;;;;;14.82;12.02;;;;;;;28.02;36.41;101047.09;144992;575;6002;-87
2021/07/24 01:03:48;;;;;;;18.67;13.18;;;;;;;28.01;35.84;101050.69;144992;565;6002;-88
2021/07/24 01:06:16;;;;;;;15.73;12.23;;;;;;;28.02;36.08;101048.91;144992;570;6002;-88
2021/07/24 01:08:43;;;;;;;15.60;11.85;;;;;;;28.03;36.39;101047.94;144992;674;6002;-87
2021/07/24 01:11:13;;;;;;;16.23;11.63;;;;;;;28.07;36.25;101056.72;144992;566;6002;-88
2021/07/24 01:13:40;;;;;;;15.25;11.43;;;;;;;28.00;36.45;101048.94;144992;747;6002;-88
2021/07/24 01:16:08;;;;;;;12.25;9.55;;;;;;;27.99;35.89;101049.88;144992;591;6002;-87
2021/07/24 01:18:36;;;;;;;10.40;9.20;;;;;;;28.01;36.01;101049.81;144992;570;6002;-89
2021/07/24 01:21:08;;;;;;;13.93;9.95;;;;;;;28.01;36.45;101049.81;144992;596;6002;-87
2021/07/24 01:23:36;;;;;;;12.93;9.30;;;;;;;28.02;36.06;101052.44;144992;598;6003;-87
2021/07/24 01:26:04;;;;;;;10.23;8.82;;;;;;;28.03;35.95;101058.62;144992;572;6011;-88
2021/07/24 01:28:33;;;;;;;9.98;8.43;;;;;;;28.02;35.61;101048.91;144992;566;6002;-87
2021/07/24 01:31:03;;;;;;;11.65;9.30;;;;;;;28.01;36.03;101052.47;144992;618;6002;-87
2021/07/24 01:33:30;;;;;;;13.13;8.70;;;;;;;27.99;35.89;101057.00;144992;564;6002;-89
2021/07/24 01:36:02;;;;;;;10.93;8.82;;;;;;;27.94;36.15;101058.97;144992;590;6002;-87
2021/07/24 01:38:30;;;;;;;17.52;10.43;;;;;;;27.94;35.88;101059.84;144992;564;6002;-85
2021/07/24 01:40:57;;;;;;;14.70;10.32;;;;;;;27.99;36.21;101059.69;144992;593;6002;-86
2021/07/24 01:43:24;;;;;;;11.77;9.25;;;;;;;27.96;36.34;101063.31;144992;606;6002;-91
2021/07/24 01:45:51;;;;;;;12.27;7.22;;;;;;;27.95;36.04;101066.03;144991;566;6002;-87
2021/07/24 01:48:28;;;;;;;10.88;7.70;;;;;;;27.96;35.91;101067.81;144992;564;6002;-89
2021/07/24 01:53:43;;;;;;;6.80;5.57;;;;;;;28.00;36.36;101069.44;144992;589;6004;-88
2021/07/24 01:56:11;;;;;;;7.03;5.47;;;;;;;28.05;36.15;101068.31;144992;601;6004;-88
2021/07/24 01:58:38;;;;;;;5.78;4.82;;;;;;;28.05;35.63;101067.47;144992;573;6004;-85
2021/07/24 02:01:06;;;;;;;6.28;4.47;;;;;;;28.00;35.64;101058.75;144992;588;6004;-88
2021/07/24 02:03:44;;;;;;;8.07;4.62;;;;;;;27.99;35.32;101060.53;144992;575;6004;-88
2021/07/24 02:06:15;;;;;;;5.57;4.10;;;;;;;27.95;35.87;101058.94;144992;600;6004;-88
2021/07/24 02:08:47;;;;;;;5.95;4.82;;;;;;;27.95;35.81;101064.28;144992;628;6004;-87
2021/07/24 02:11:16;;;;;;;5.15;4.07;;;;;;;27.91;35.63;101056.41;144992;567;6004;-87
2021/07/24 02:13:45;;;;;;;5.22;4.55;;;;;;;27.84;35.54;101053.97;144993;639;6004;-88
2021/07/24 02:16:13;;;;;;;7.65;4.40;;;;;;;27.82;35.75;101049.59;144993;583;6002;-90
2021/07/24 02:18:41;;;;;;;6.75;4.30;;;;;;;27.70;35.24;101050.94;144993;587;6002;-88
2021/07/24 02:21:08;;;;;;;6.87;4.25;;;;;;;27.67;35.22;101051.03;144993;596;6002;-88
2021/07/24 02:23:35;;;;;;;6.32;4.30;;;;;;;27.50;35.58;101055.19;144993;693;6002;-88
2021/07/24 02:26:01;;;;;;;5.65;4.40;;;;;;;27.32;36.05;101062.03;144993;591;6002;-88
2021/07/24 02:28:31;;;;;;;9.15;4.30;;;;;;;27.37;35.67;101064.53;144993;594;6002;-87
2021/07/24 02:30:57;;;;;;;6.22;4.07;;;;;;;27.45;35.90;101054.47;144993;580;6003;-85
2021/07/24 02:33:29;;;;;;;6.85;4.28;;;;;;;27.51;35.83;101062.25;144993;586;6002;-88
2021/07/24 02:35:58;;;;;;;8.00;4.35;;;;;;;27.58;35.66;101065.56;144993;569;6002;-87
2021/07/24 02:38:24;;;;;;;7.43;4.22;;;;;;;27.60;36.05;101060.19;144993;584;6002;-86
2021/07/24 02:40:51;;;;;;;6.25;3.95;;;;;;;27.64;35.59;101061.81;144993;575;6002;-87
2021/07/24 02:43:17;;;;;;;7.30;4.93;;;;;;;27.69;35.90;101060.72;144993;596;6002;-87
2021/07/24 02:45:44;;;;;;;4.95;4.15;;;;;;;27.76;35.41;101061.38;144993;703;6002;-85
2021/07/24 02:48:11;;;;;;;6.28;4.40;;;;;;;27.79;35.98;101061.28;144992;595;6002;-87
2021/07/24 02:50:38;;;;;;;6.72;4.70;;;;;;;27.79;35.65;101058.59;144992;565;6002;-87
2021/07/24 02:53:04;;;;;;;6.37;4.70;;;;;;;27.77;35.67;101065.78;144992;593;6002;-89
2021/07/24 02:55:31;;;;;;;8.60;4.78;;;;;;;27.74;35.66;101071.22;144992;653;6002;-89
2021/07/24 02:57:59;;;;;;;9.65;4.60;;;;;;;27.77;35.57;101075.56;144992;571;6002;-87
2021/07/24 03:00:25;;;;;;;8.38;4.62;;;;;;;27.82;35.59;101077.16;144992;598;6002;-88
2021/07/24 03:02:52;;;;;;;6.40;4.60;;;;;;;27.86;35.53;101081.44;144993;589;6002;-87
2021/07/24 03:05:19;;;;;;;8.60;4.90;;;;;;;27.90;35.72;101084.84;144993;587;6002;-89
2021/07/24 03:07:46;;;;;;;8.80;4.90;;;;;;;27.90;36.20;101081.31;144993;598;6002;-87
2021/07/24 03:10:13;;;;;;;7.37;4.65;;;;;;;27.82;36.05;101086.94;144993;592;6002;-86
2021/07/24 03:12:40;;;;;;;16.52;5.32;;;;;;;27.76;35.86;101082.72;144993;579;6002;-87
2021/07/24 03:15:07;;;;;;;11.40;5.07;;;;;;;27.75;36.02;101078.28;144993;704;6002;-87
2021/07/24 03:17:34;;;;;;;13.57;5.62;;;;;;;27.70;36.56;101082.94;144993;573;6002;-87
2021/07/24 03:20:02;;;;;;;14.60;5.00;;;;;;;27.65;36.52;101079.56;144993;588;6002;-86
2021/07/24 03:22:29;;;;;;;11.15;5.40;;;;;;;27.43;36.89;101085.66;144993;579;6002;-89
2021/07/24 03:24:56;;;;;;;9.80;5.05;;;;;;;27.36;37.14;101092.09;144993;569;6002;-87
2021/07/24 03:27:23;;;;;;;7.00;4.20;;;;;;;27.35;37.07;101082.38;144993;590;6002;-86
2021/07/24 03:29:49;;;;;;;9.35;4.60;;;;;;;27.31;36.74;101091.41;144993;569;6002;-87
2021/07/24 03:32:15;;;;;;;8.38;4.53;;;;;;;27.34;36.69;101091.28;144993;630;6002;-88
2021/07/24 03:34:42;;;;;;;5.90;4.60;;;;;;;27.33;37.43;101095.75;144993;600;6002;-87
2021/07/24 03:37:08;;;;;;;6.95;4.87;;;;;;;27.28;37.67;101104.78;144992;675;6002;-86
2021/07/24 03:39:35;;;;;;;8.68;4.90;;;;;;;27.31;37.44;101102.94;144993;598;6002;-87
2021/07/24 03:42:02;;;;;;;9.35;5.10;;;;;;;27.33;37.46;101106.44;144993;631;6002;-88
2021/07/24 03:44:29;;;;;;;7.78;4.60;;;;;;;27.31;37.16;101100.28;144993;591;6002;-87
2021/07/24 03:46:58;;;;;;;8.38;4.87;;;;;;;27.30;37.10;101108.28;144993;911;6002;-88
2021/07/24 03:49:25;;;;;;;6.82;4.47;;;;;;;27.31;37.41;101107.38;144993;571;6002;-86
2021/07/24 03:51:51;;;;;;;7.07;4.40;;;;;;;27.31;37.06;101104.72;144993;569;6002;-85
2021/07/24 03:54:18;;;;;;;8.05;4.72;;;;;;;27.32;37.42;101098.47;144993;592;6002;-89
2021/07/24 03:56:46;;;;;;;6.75;4.65;;;;;;;27.31;37.70;101102.94;144994;612;5002;-86
2021/07/24 03:59:12;;;;;;;5.65;4.30;;;;;;;27.31;37.65;101104.72;144994;801;5002;-88
2021/07/24 04:01:41;;;;;;;7.05;4.57;;;;;;;27.32;37.28;101104.66;144994;683;5002;-87
2021/07/24 04:04:07;;;;;;;6.43;4.03;;;;;;;27.37;37.09;101106.31;144994;586;5002;-87
2021/07/24 04:06:34;;;;;;;7.95;4.32;;;;;;;27.37;37.19;101101.00;144994;700;5002;-87
2021/07/24 04:09:03;;;;;;;8.15;4.30;;;;;;;27.34;37.43;101109.94;144994;564;5002;-87
2021/07/24 04:11:30;;;;;;;8.95;4.57;;;;;;;27.39;37.65;101108.00;144994;760;5002;-88
2021/07/24 04:13:58;;;;;;;7.53;4.22;;;;;;;27.45;37.77;101106.91;144994;720;5002;-88
2021/07/24 04:16:27;;;;;;;5.30;4.15;;;;;;;27.49;37.15;101112.09;144994;599;5002;-86
2021/07/24 04:18:54;;;;;;;6.95;4.20;;;;;;;27.52;37.58;101119.09;144994;709;5002;-87
2021/07/24 04:21:22;;;;;;;6.82;4.53;;;;;;;27.57;37.09;101124.28;144994;569;5002;-88
2021/07/24 04:23:50;;;;;;;8.27;4.22;;;;;;;27.63;37.48;101126.72;144994;910;5002;-86
2021/07/24 04:26:17;;;;;;;6.28;3.75;;;;;;;27.71;37.65;101126.47;144994;595;5002;-88
2021/07/24 04:28:44;;;;;;;7.80;4.47;;;;;;;27.76;37.28;101130.72;144994;574;5002;-87
2021/07/24 04:31:14;;;;;;;7.05;4.78;;;;;;;27.81;37.15;101126.09;144994;641;5002;-88
2021/07/24 04:33:42;;;;;;;8.13;4.32;;;;;;;27.81;36.91;101120.75;144994;589;5002;-83
2021/07/24 04:36:11;;;;;;;6.47;4.25;;;;;;;27.80;37.28;101124.34;144993;588;5002;-88
2021/07/24 04:38:38;;;;;;;6.68;4.10;;;;;;;27.81;37.03;101136.75;144994;564;5002;-87
2021/07/24 04:41:05;;;;;;;11.45;4.45;;;;;;;27.81;37.28;101134.09;144994;569;5002;-86
2021/07/24 04:43:31;;;;;;;6.90;4.20;;;;;;;27.80;37.02;101142.16;144994;582;5002;-89
2021/07/24 04:45:58;;;;;;;9.13;4.30;;;;;;;27.76;37.15;101144.06;144994;570;5002;-88
2021/07/24 04:48:24;;;;;;;7.80;4.53;;;;;;;27.69;37.78;101142.53;144994;744;5002;-88
2021/07/24 04:50:53;;;;;;;9.63;4.75;;;;;;;27.65;37.63;101144.44;144993;633;5002;-89
2021/07/24 04:53:20;;;;;;;9.27;5.10;;;;;;;27.70;37.20;101149.59;144994;576;5002;-87
2021/07/24 04:55:47;;;;;;;10.90;4.97;;;;;;;27.78;37.18;101147.53;144994;591;5002;-87
2021/07/24 04:58:14;;;;;;;8.85;4.37;;;;;;;27.84;37.08;101147.31;144994;566;5002;-88
2021/07/24 05:00:46;;;;;;;8.65;4.50;;;;;;;27.89;37.34;101149.81;144994;582;5002;-87
2021/07/24 05:03:14;;;;;;;10.60;4.43;;;;;;;27.95;37.33;101143.41;144994;595;5002;-87
2021/07/24 05:05:41;;;;;;;7.18;4.43;;;;;;;27.99;37.42;101145.91;144994;597;5002;-87
2021/07/24 05:08:08;;;;;;;8.55;4.65;;;;;;;28.05;37.43;101150.19;144994;589;5012;-89
2021/07/24 05:10:38;;;;;;;9.30;4.45;;;;;;;28.07;37.16;101140.31;144994;599;5002;-87
2021/07/24 05:13:05;;;;;;;8.30;4.30;;;;;;;28.07;37.29;101145.66;144994;733;5002;-86
2021/07/24 05:15:31;;;;;;;7.10;4.10;;;;;;;28.10;37.31;101150.88;144994;566;5002;-88
2021/07/24 05:17:58;;;;;;;11.07;4.30;;;;;;;28.15;37.57;101143.56;144994;598;5002;-89
2021/07/24 05:20:28;;;;;;;16.27;4.82;;;;;;;28.26;37.45;101150.31;144994;569;5002;-86
2021/07/24 05:22:55;;;;;;;15.00;5.00;;;;;;;28.31;37.61;101143.00;144994;564;5002;-87
2021/07/24 05:25:22;;;;;;;6.87;3.95;;;;;;;28.33;37.30;101147.34;144994;586;5002;-87
2021/07/24 05:27:49;;;;;;;8.15;4.20;;;;;;;28.40;37.83;101145.31;144994;587;5002;-90
2021/07/24 05:30:16;;;;;;;7.78;3.97;;;;;;;28.44;37.37;101141.59;144994;600;5002;-86
2021/07/24 05:32:42;;;;;;;15.15;4.22;;;;;;;28.45;37.44;101146.00;144994;645;5002;-88
2021/07/24 05:35:09;;;;;;;11.88;4.32;;;;;;;28.46;37.40;101153.09;144994;690;5002;-88
2021/07/24 05:37:36;;;;;;;7.95;4.25;;;;;;;28.44;37.78;101143.41;144994;696;5002;-85
2021/07/24 05:40:04;;;;;;;8.13;4.45;;;;;;;28.40;37.65;101148.00;144994;579;5002;-85
2021/07/24 05:42:30;;;;;;;10.10;4.12;;;;;;;28.36;37.49;101146.34;144994;575;5002;-88
2021/07/24 05:44:57;;;;;;;11.82;4.50;;;;;;;28.38;37.39;101140.03;144994;751;5003;-88
2021/07/24 05:47:23;;;;;;;11.15;4.60;;;;;;;28.44;37.32;101143.41;144994;606;5002;-89
2021/07/24 05:49:53;;;;;;;6.45;4.20;;;;;;;28.47;37.23;101154.81;144994;698;5002;-86
2021/07/24 05:52:20;;;;;;;8.20;4.50;;;;;;;28.55;37.34;101149.19;144994;567;5002;-86
2021/07/24 05:54:48;;;;;;;8.88;4.47;;;;;;;28.60;37.58;101147.25;144994;586;5002;-88
2021/07/24 05:57:15;;;;;;;12.00;5.40;;;;;;;28.65;37.33;101144.38;144994;676;5002;-85
2021/07/24 05:59:41;;;;;;;10.30;5.28;;;;;;;28.66;37.37;101155.00;144994;571;5002;-88
2021/07/24 06:02:11;;;;;;;5.85;4.07;;;;;;;28.67;37.39;101150.56;144994;589;5002;-89
2021/07/24 06:04:43;;;;;;;10.13;4.43;;;;;;;28.71;37.23;101147.69;144994;684;5002;-89
2021/07/24 06:07:09;;;;;;;6.60;4.50;;;;;;;28.79;37.09;101154.53;144994;659;5002;-86
2021/07/24 06:09:36;;;;;;;8.05;4.25;;;;;;;28.85;36.54;101152.50;144994;569;5002;-88
2021/07/24 06:12:03;;;;;;;6.87;4.45;;;;;;;28.95;36.86;101158.31;144994;563;5002;-87
2021/07/24 06:14:32;;;;;;;10.15;4.28;;;;;;;29.04;36.47;101162.44;144994;616;5002;-87
2021/07/24 06:16:59;;;;;;;9.60;5.05;;;;;;;29.10;36.64;101157.72;144994;591;5002;-87
2021/07/24 06:19:25;;;;;;;7.82;4.68;;;;;;;29.16;36.77;101159.28;144994;566;5002;-88
2021/07/24 06:21:52;;;;;;;7.82;4.70;;;;;;;29.21;36.46;101156.44;144994;588;5002;-89
2021/07/24 06:24:18;;;;;;;8.48;4.70;;;;;;;29.28;36.54;101152.56;144994;588;5002;-89
2021/07/24 06:26:46;;;;;;;10.82;5.05;;;;;;;29.37;36.61;101146.00;144994;579;5002;-88
2021/07/24 06:29:14;;;;;;;8.38;4.50;;;;;;;29.45;36.78;101146.53;144994;598;5002;-88
2021/07/24 06:31:40;;;;;;;5.68;4.12;;;;;;;29.40;36.86;101148.50;144994;571;5002;-86
2021/07/24 06:34:07;;;;;;;6.55;3.87;;;;;;;29.46;37.36;101161.63;144994;613;5002;-89
2021/07/24 06:36:33;;;;;;;9.40;3.80;;;;;;;29.46;37.54;101157.16;144994;564;5002;-87
2021/07/24 06:39:00;;;;;;;8.40;4.32;;;;;;;29.35;38.29;101162.09;144994;609;5002;-87
2021/07/24 06:41:29;;;;;;;7.12;4.00;;;;;;;29.16;39.02;101158.38;144994;579;5002;-88
2021/07/24 06:43:55;;;;;;;6.20;4.05;;;;;;;29.23;40.13;101168.81;144994;589;5002;-88
2021/07/24 06:46:23;;;;;;;7.20;4.15;;;;;;;29.30;38.83;101156.94;144994;691;5002;-86
2021/07/24 06:48:49;;;;;;;7.05;4.12;;;;;;;29.40;38.89;101153.84;144994;584;5002;-88
2021/07/24 06:51:16;;;;;;;4.65;3.55;;;;;;;29.46;38.85;101150.91;144994;718;5002;-88
2021/07/24 06:53:43;;;;;;;5.25;3.80;;;;;;;29.48;38.75;101154.41;144994;591;5002;-87
2021/07/24 06:56:09;;;;;;;7.30;4.32;;;;;;;29.38;38.97;101147.72;144994;577;5002;-88
2021/07/24 06:58:36;;;;;;;5.55;3.72;;;;;;;29.44;39.68;101155.47;144994;603;5002;-88
2021/07/24 07:01:06;;;;;;;6.93;4.22;;;;;;;29.45;39.06;101155.41;144994;705;5002;-86
2021/07/24 07:03:33;;;;;;;7.55;4.10;;;;;;;29.20;41.93;101152.88;144994;572;5002;-88
2021/07/24 07:05:59;;;;;;;6.45;4.18;;;;;;;28.94;40.84;101146.78;144994;575;5002;-90
2021/07/24 07:08:25;;;;;;;7.22;3.87;;;;;;;28.88;40.83;101149.69;144994;571;5002;-88
2021/07/24 07:10:52;;;;;;;9.00;4.05;;;;;;;28.91;42.71;101141.56;144994;580;5002;-88
2021/07/24 07:13:19;;;;;;;5.68;3.53;;;;;;;28.88;41.94;101144.34;144994;716;5002;-89
2021/07/24 07:15:45;;;;;;;5.82;3.55;;;;;;;28.95;41.96;101150.31;144994;581;5002;-88
2021/07/24 07:18:11;;;;;;;5.18;3.75;;;;;;;28.97;42.00;101139.56;144994;563;5002;-87
2021/07/24 07:20:38;;;;;;;5.78;3.78;;;;;;;28.90;42.48;101145.16;144994;637;5002;-88
2021/07/24 07:23:05;;;;;;;8.55;4.30;;;;;;;28.97;42.24;101142.22;144994;637;5002;-88
2021/07/24 07:25:32;;;;;;;5.87;3.95;;;;;;;29.00;42.58;101155.47;144994;711;5002;-89
2021/07/24 07:27:59;;;;;;;7.30;3.65;;;;;;;29.03;42.67;101150.00;144994;576;5002;-88
2021/07/24 07:30:27;;;;;;;5.55;3.25;;;;;;;28.94;44.21;101160.13;144994;597;5002;-88
2021/07/24 07:32:54;;;;;;;6.50;3.50;;;;;;;28.92;42.99;101154.00;144994;726;5002;-87
2021/07/24 07:35:21;;;;;;;5.05;3.10;;;;;;;28.83;43.65;101148.16;144994;596;5016;-86
2021/07/24 07:37:50;;;;;;;4.50;2.90;;;;;;;28.84;43.33;101150.78;144994;579;5002;-87
2021/07/24 07:40:18;;;;;;;5.07;3.50;;;;;;;28.81;43.41;101158.91;144994;574;5002;-89
2021/07/24 07:42:45;;;;;;;6.78;4.28;;;;;;;28.92;44.33;101159.34;144994;599;5002;-87
2021/07/24 07:45:12;;;;;;;9.57;3.60;;;;;;;28.89;43.25;101156.78;144994;593;5002;-87
2021/07/24 07:47:47;;;;;;;7.57;3.50;;;;;;;28.96;43.25;101152.06;144994;565;5002;-89
2021/07/24 07:50:15;;;;;;;6.85;3.42;;;;;;;28.89;43.62;101153.22;144993;571;5002;-87
2021/07/24 07:52:43;;;;;;;8.50;3.60;;;;;;;28.99;43.51;101151.09;144994;720;5002;-87
2021/07/24 07:55:10;;;;;;;6.45;4.20;;;;;;;28.82;44.15;101151.75;144994;614;5002;-90
2021/07/24 07:57:39;;;;;;;4.28;3.33;;;;;;;28.90;43.88;101161.19;144994;573;5002;-88
2021/07/24 08:00:07;;;;;;;7.32;3.67;;;;;;;28.87;43.96;101160.44;144994;569;5002;-89
2021/07/24 08:02:34;;;;;;;5.78;3.30;;;;;;;28.82;43.80;101160.62;144994;579;5002;-87
2021/07/24 08:05:01;;;;;;;7.40;3.50;;;;;;;28.93;43.72;101160.19;144994;563;5002;-89
2021/07/24 08:07:29;;;;;;;6.30;3.70;;;;;;;28.96;43.93;101162.75;144994;572;5002;-88
2021/07/24 08:09:59;;;;;;;6.37;3.17;;;;;;;29.03;43.86;101156.25;144994;607;5002;-87
2021/07/24 08:12:26;;;;;;;8.38;3.67;;;;;;;29.12;43.85;101158.50;144994;581;5002;-88
2021/07/24 08:14:53;;;;;;;5.40;3.17;;;;;;;29.34;43.37;101159.47;144994;665;5002;-87
2021/07/24 08:17:21;;;;;;;5.28;3.25;;;;;;;29.42;43.02;101158.22;144994;595;5002;-88
2021/07/24 08:19:47;;;;;;;6.50;3.60;;;;;;;29.44;42.77;101163.50;144994;593;5002;-87
2021/07/24 08:22:14;;;;;;;4.72;3.30;;;;;;;29.42;42.92;101155.53;144994;593;5002;-87
2021/07/24 08:24:41;;;;;;;8.38;4.00;;;;;;;29.43;42.85;101157.28;144994;659;5002;-87
2021/07/24 08:27:07;;;;;;;5.32;4.07;;;;;;;29.43;42.78;101161.75;144994;615;4565;-88
2021/07/24 08:29:34;;;;;;;6.93;3.12;;;;;;;29.48;42.84;101165.13;144994;573;4567;-88
2021/07/24 08:32:00;;;;;;;8.27;3.30;;;;;;;29.42;43.04;101162.69;144994;654;4572;-87
2021/07/24 08:34:27;;;;;;;5.72;3.10;;;;;;;29.44;43.07;101166.16;144992;597;6002;-88
2021/07/24 08:36:53;;;;;;;5.12;3.15;;;;;;;29.08;44.21;101164.94;144992;733;6002;-87
2021/07/24 08:39:20;;;;;;;6.32;3.40;;;;;;;29.08;43.70;101161.38;144992;678;6002;-86
2021/07/24 08:41:46;;;;;;;6.82;3.80;;;;;;;29.07;43.48;101159.66;144992;563;6002;-88
2021/07/24 08:44:12;;;;;;;6.50;3.20;;;;;;;29.23;43.52;101165.28;144992;618;6002;-89
2021/07/24 08:46:39;;;;;;;5.97;3.12;;;;;;;29.17;43.75;101169.03;144992;589;6002;-87
2021/07/24 08:49:06;;;;;;;6.50;3.00;;;;;;;29.20;43.19;101160.06;144992;724;6002;-86
2021/07/24 08:51:36;;;;;;;6.82;3.05;;;;;;;29.22;42.33;101151.00;144992;583;6002;-85
2021/07/24 08:54:05;;;;;;;7.12;3.33;;;;;;;29.29;42.02;101160.53;144992;734;6002;-87
2021/07/24 08:56:35;;;;;;;7.82;3.22;;;;;;;29.25;42.09;101158.91;144992;569;6002;-88
2021/07/24 08:59:03;;;;;;;5.78;3.30;;;;;;;29.17;41.74;101161.00;144992;569;6002;-87
2021/07/24 09:01:34;;;;;;;8.65;4.40;;;;;;;29.11;41.71;101153.22;144992;563;6002;-89
2021/07/24 09:04:05;;;;;;;8.40;5.10;;;;;;;29.05;42.11;101159.72;144992;709;6002;-87
2021/07/24 09:06:31;;;;;;;4.93;3.00;;;;;;;29.15;42.23;101168.22;144992;576;6002;-87
2021/07/24 09:08:58;;;;;;;5.60;3.20;;;;;;;29.10;41.62;101159.53;144992;565;6002;-89
2021/07/24 09:11:25;;;;;;;5.72;2.97;;;;;;;29.18;41.48;101161.88;144992;672;6002;-88
2021/07/24 09:13:51;;;;;;;4.82;3.10;;;;;;;29.19;41.85;101156.53;144992;677;6002;-87
2021/07/24 09:16:18;;;;;;;6.32;3.70;;;;;;;29.31;41.71;101161.31;144992;644;6002;-87
2021/07/24 09:18:48;;;;;;;9.35;3.12;;;;;;;29.38;41.61;101161.06;144992;619;6002;-87
2021/07/24 09:21:15;;;;;;;6.35;3.10;;;;;;;29.47;41.06;101156.19;144992;587;6002;-87
2021/07/24 09:23:47;;;;;;;9.13;2.92;;;;;;;29.64;40.85;101151.97;144992;569;6002;-86
2021/07/24 09:26:34;;;;;;;4.47;3.28;;;;;;;29.63;41.29;101143.03;144992;660;6002;-90
2021/07/24 09:29:14;;;;;;;5.53;2.83;;;;;;;29.87;40.31;101145.63;144992;585;6002;-86
2021/07/24 09:31:42;;;;;;;4.82;3.10;;;;;;;29.87;40.21;101150.97;144992;721;6002;-84
2021/07/24 09:34:10;;;;;;;9.20;3.03;;;;;;;29.93;39.76;101134.63;144992;622;6002;-88
2021/07/24 09:36:38;;;;;;;5.28;2.92;;;;;;;30.10;39.68;101147.28;144992;601;6002;-90
2021/07/24 09:39:26;;;;;;;6.53;3.50;;;;;;;30.00;40.11;101145.94;144992;583;6002;-89
2021/07/24 09:41:53;;;;;;;5.32;3.10;;;;;;;30.00;39.62;101138.78;144992;567;6004;-88
2021/07/24 09:44:30;;;;;;;6.93;3.45;;;;;;;29.96;39.83;101136.31;144992;594;6004;-86
2021/07/24 09:46:57;;;;;;;4.57;2.95;;;;;;;30.18;39.65;101133.53;144992;588;6004;-89
2021/07/24 09:49:41;;;;;;;6.78;3.70;;;;;;;30.07;39.91;101136.69;144992;571;6004;-88
2021/07/24 09:52:15;;;;;;;7.57;3.92;;;;;;;29.93;39.87;101131.97;144992;569;6004;-89
2021/07/24 09:54:41;;;;;;;6.40;3.70;;;;;;;30.08;39.39;101134.87;144992;579;6004;-87
2021/07/24 09:57:08;;;;;;;4.15;2.95;;;;;;;30.18;38.53;101133.53;144992;650;6004;-87
2021/07/24 09:59:35;;;;;;;6.05;3.42;;;;;;;30.10;39.25;101127.63;144991;593;6000;-88
2021/07/24 10:02:07;;;;;;;7.35;3.35;;;;;;;30.01;39.00;101129.81;144992;646;6002;-88
2021/07/24 10:04:36;;;;;;;;;;;;;;;30.08;38.43;101127.72;144997;910;6002;-88
2021/07/24 10:07:05;;;;;;;8.80;4.10;;;;;;;30.34;38.25;101128.34;144997;651;6002;-89
2021/07/24 10:09:34;;;;;;;5.85;3.20;;;;;;;30.34;39.03;101125.66;144992;580;6002;-89
2021/07/24 10:12:02;;;;;;;6.35;3.47;;;;;;;30.34;38.04;101118.50;144992;582;6002;-85
2021/07/24 10:14:30;;;;;;;4.25;3.83;;;;;;;30.29;38.74;101130.34;144992;601;6002;-87
2021/07/24 10:17:01;;;;;;;7.30;3.10;;;;;;;30.37;38.24;101126.38;144991;591;6002;-86
2021/07/24 10:19:28;;;;;;;7.18;3.33;;;;;;;30.62;37.63;101121.69;144992;583;6002;-86
2021/07/24 10:21:57;;;;;;;7.22;2.85;;;;;;;30.48;37.45;101128.59;144992;572;6002;-86
2021/07/24 10:24:24;;;;;;;4.60;3.03;;;;;;;30.47;37.36;101117.94;144992;581;6002;-85
2021/07/24 10:27:18;;;;;;;5.93;2.78;;;;;;;30.27;38.10;101119.69;144992;597;6002;-85
2021/07/24 10:29:58;;;;;;;4.55;2.83;;;;;;;30.36;38.00;101121.97;144992;662;6004;-85
2021/07/24 10:32:29;;;;;;;3.92;2.90;;;;;;;30.45;38.48;101125.16;144992;585;6004;-89
2021/07/24 10:34:56;;;;;;;7.03;3.00;;;;;;;30.52;37.47;101105.19;144992;581;6004;-85
2021/07/24 10:37:42;;;;;;;6.22;2.80;;;;;;;30.71;37.82;101115.91;144992;624;6004;-86
2021/07/24 10:40:38;;;;;;;5.97;2.92;;;;;;;30.83;36.47;101109.06;144992;609;6004;-87
2021/07/24 10:43:06;;;;;;;6.62;3.00;;;;;;;30.74;36.71;101107.72;144992;571;6002;-86
2021/07/24 10:45:52;;;;;;;5.87;3.33;;;;;;;30.62;37.41;101109.16;144992;575;6002;-90
2021/07/24 10:48:20;;;;;;;5.57;2.95;;;;;;;30.69;37.36;101113.28;144991;616;6000;-88
2021/07/24 10:51:16;;;;;;;5.43;2.97;;;;;;;30.63;37.66;101120.75;144992;610;6002;-87
2021/07/24 10:54:09;;;;;;;5.25;2.75;;;;;;;30.76;37.00;101108.50;144992;591;6004;-87
2021/07/24 10:56:42;;;;;;;7.60;2.95;;;;;;;30.69;36.89;101112.44;144992;573;6002;-87
2021/07/24 10:59:19;;;;;;;4.30;2.53;;;;;;;30.51;37.23;101108.81;144992;585;6002;-88
2021/07/24 11:01:51;;;;;;;4.00;2.60;;;;;;;30.44;36.89;101102.03;144992;582;6002;-87
2021/07/24 11:04:46;;;;;;;4.25;2.60;;;;;;;30.39;37.34;101095.06;144992;564;6002;-91
2021/07/24 11:07:45;;;;;;;3.47;2.97;;;;;;;30.28;37.13;101093.81;144992;585;6002;-87
2021/07/24 11:10:12;;;;;;;4.53;3.10;;;;;;;30.12;37.70;101097.19;144991;582;6000;-87
2021/07/24 11:12:40;;;;;;;4.87;3.05;;;;;;;30.17;37.55;101091.63;144992;570;6002;-87
2021/07/24 11:15:11;;;;;;;7.15;3.03;;;;;;;30.14;37.76;101091.78;144992;615;6002;-86
2021/07/24 11:17:38;;;;;;;6.12;3.15;;;;;;;30.18;37.97;101096.06;144992;588;6002;-87
2021/07/24 11:20:25;;;;;;;6.45;3.12;;;;;;;30.32;38.02;101095.38;144992;597;6002;-89
2021/07/24 11:23:05;;;;;;;5.65;3.17;;;;;;;30.30;38.15;101084.75;144992;587;6004;-86
2021/07/24 11:25:34;;;;;;;5.10;3.00;;;;;;;30.24;37.81;101092.22;144993;580;6004;-87
2021/07/24 11:28:04;;;;;;;4.57;2.80;;;;;;;30.27;37.21;101097.41;144992;605;6002;-85
2021/07/24 11:30:32;;;;;;;4.68;3.08;;;;;;;30.33;37.31;101105.16;144992;633;6002;-88
2021/07/24 11:33:00;;;;;;;5.20;2.95;;;;;;;30.09;36.88;101100.00;144992;582;6002;-87
2021/07/24 11:35:41;;;;;;;7.20;3.33;;;;;;;30.09;36.92;101102.69;144992;591;6002;-86
2021/07/24 11:38:25;;;;;;;3.30;2.80;;;;;;;29.86;37.69;101098.41;144992;608;6002;-86
2021/07/24 11:41:06;;;;;;;5.50;3.70;;;;;;;30.05;37.33;101094.87;144992;594;6002;-82
2021/07/24 11:43:39;;;;;;;6.00;3.80;;;;;;;29.98;37.51;101097.81;144992;564;6002;-88